sensor_id;sensor_type;location;lat;lon;timestamp;pressure;altitude;pressure_sealevel;temperature;humidity
22653;BME280;11493;43.344;26.226;2022-08-06T00:02:28;98971.84;;;22.28;74.60
22653;BME280;11493;43.344;26.226;2022-08-06T00:04:59;98966.28;;;22.21;75.15
22653;BME280;11493;43.344;26.226;2022-08-06T00:07:29;98973.47;;;22.22;75.11
22653;BME280;11493;43.344;26.226;2022-08-06T00:10:11;98965.88;;;22.19;75.18
22653;BME280;11493;43.344;26.226;2022-08-06T00:12:40;98974.28;;;22.23;75.56
22653;BME280;11493;43.344;26.226;2022-08-06T00:15:08;98963.47;;;22.18;75.67
22653;BME280;11493;43.344;26.226;2022-08-06T00:17:41;98955.88;;;22.11;75.80
22653;BME280;11493;43.344;26.226;2022-08-06T00:20:11;98963.88;;;22.09;76.33
22653;BME280;11493;43.344;26.226;2022-08-06T00:22:58;98973.88;;;22.07;76.53
22653;BME280;11493;43.344;26.226;2022-08-06T00:25:27;98966.28;;;22.11;76.41
22653;BME280;11493;43.344;26.226;2022-08-06T00:28:01;98978.69;;;22.10;76.56
22653;BME280;11493;43.344;26.226;2022-08-06T00:30:36;98969.47;;;22.09;76.26
22653;BME280;11493;43.344;26.226;2022-08-06T00:33:03;98963.47;;;22.07;75.86
22653;BME280;11493;43.344;26.226;2022-08-06T00:35:32;98973.47;;;22.08;76.01
22653;BME280;11493;43.344;26.226;2022-08-06T00:38:00;98964.69;;;22.06;76.52
22653;BME280;11493;43.344;26.226;2022-08-06T00:40:29;98958.28;;;22.13;76.77
22653;BME280;11493;43.344;26.226;2022-08-06T00:42:59;98965.88;;;22.16;76.67
22653;BME280;11493;43.344;26.226;2022-08-06T00:45:33;98967.06;;;22.18;76.60
22653;BME280;11493;43.344;26.226;2022-08-06T00:48:12;98965.47;;;22.10;76.66
22653;BME280;11493;43.344;26.226;2022-08-06T00:50:59;98971.09;;;22.14;76.46
22653;BME280;11493;43.344;26.226;2022-08-06T00:53:27;98962.28;;;22.15;76.02
22653;BME280;11493;43.344;26.226;2022-08-06T00:56:00;98953.88;;;22.08;76.28
22653;BME280;11493;43.344;26.226;2022-08-06T00:58:37;98951.03;;;22.01;76.75
22653;BME280;11493;43.344;26.226;2022-08-06T01:01:07;98961.47;;;22.15;76.80
22653;BME280;11493;43.344;26.226;2022-08-06T01:03:45;98954.28;;;22.10;76.88
22653;BME280;11493;43.344;26.226;2022-08-06T01:06:19;98951.06;;;22.05;76.94
22653;BME280;11493;43.344;26.226;2022-08-06T01:09:08;98951.44;;;22.00;77.67
22653;BME280;11493;43.344;26.226;2022-08-06T01:11:37;98962.25;;;22.01;77.98
22653;BME280;11493;43.344;26.226;2022-08-06T01:14:05;98959.88;;;22.03;77.98
22653;BME280;11493;43.344;26.226;2022-08-06T01:16:54;98963.88;;;22.02;78.24
22653;BME280;11493;43.344;26.226;2022-08-06T01:22:42;98967.84;;;21.90;79.11
22653;BME280;11493;43.344;26.226;2022-08-06T01:28:16;98967.84;;;21.83;79.39
22653;BME280;11493;43.344;26.226;2022-08-06T01:31:03;98955.03;;;21.79;79.18
22653;BME280;11493;43.344;26.226;2022-08-06T01:33:47;98967.03;;;21.83;79.62
22653;BME280;11493;43.344;26.226;2022-08-06T01:36:22;98945.81;;;21.71;79.36
22653;BME280;11493;43.344;26.226;2022-08-06T01:38:56;98954.22;;;21.82;79.26
22653;BME280;11493;43.344;26.226;2022-08-06T01:41:41;98957.84;;;21.89;79.44
22653;BME280;11493;43.344;26.226;2022-08-06T01:44:34;98951.44;;;21.92;78.94
22653;BME280;11493;43.344;26.226;2022-08-06T01:47:09;98968.69;;;22.02;79.06
22653;BME280;11493;43.344;26.226;2022-08-06T01:49:49;98965.44;;;22.00;79.42
22653;BME280;11493;43.344;26.226;2022-08-06T01:52:34;98961.44;;;21.90;79.41
22653;BME280;11493;43.344;26.226;2022-08-06T01:55:08;98955.84;;;21.90;79.54
22653;BME280;11493;43.344;26.226;2022-08-06T01:57:42;98964.25;;;22.01;79.23
22653;BME280;11493;43.344;26.226;2022-08-06T02:00:32;98941.44;;;21.88;79.33
22653;BME280;11493;43.344;26.226;2022-08-06T02:03:14;98963.88;;;22.06;78.79
22653;BME280;11493;43.344;26.226;2022-08-06T02:05:48;98959.88;;;22.03;79.44
22653;BME280;11493;43.344;26.226;2022-08-06T02:08:22;98963.44;;;22.00;79.74
22653;BME280;11493;43.344;26.226;2022-08-06T02:11:08;98956.25;;;21.99;79.39
22653;BME280;11493;43.344;26.226;2022-08-06T02:13:58;98965.88;;;22.05;79.84
22653;BME280;11493;43.344;26.226;2022-08-06T02:16:30;98948.25;;;22.01;79.46
22653;BME280;11493;43.344;26.226;2022-08-06T02:19:02;98959.88;;;22.03;79.54
22653;BME280;11493;43.344;26.226;2022-08-06T02:21:40;98961.47;;;22.04;79.18
22653;BME280;11493;43.344;26.226;2022-08-06T02:24:10;98953.47;;;22.06;79.00
22653;BME280;11493;43.344;26.226;2022-08-06T02:26:39;98949.44;;;22.00;79.21
22653;BME280;11493;43.344;26.226;2022-08-06T02:29:13;98953.44;;;21.99;79.41
22653;BME280;11493;43.344;26.226;2022-08-06T02:31:43;98954.28;;;22.03;79.48
22653;BME280;11493;43.344;26.226;2022-08-06T02:34:18;98956.66;;;22.08;79.27
22653;BME280;11493;43.344;26.226;2022-08-06T02:39:46;98941.84;;;21.97;79.67
22653;BME280;11493;43.344;26.226;2022-08-06T02:42:39;98957.06;;;22.10;79.10
22653;BME280;11493;43.344;26.226;2022-08-06T02:45:29;98964.69;;;22.20;79.01
22653;BME280;11493;43.344;26.226;2022-08-06T02:51:03;98959.88;;;22.07;80.09
22653;BME280;11493;43.344;26.226;2022-08-06T02:53:58;98964.69;;;22.10;80.11
22653;BME280;11493;43.344;26.226;2022-08-06T02:56:35;98949.06;;;22.05;79.83
22653;BME280;11493;43.344;26.226;2022-08-06T02:59:13;98968.69;;;22.12;79.99
22653;BME280;11493;43.344;26.226;2022-08-06T03:01:47;98965.47;;;22.10;80.31
22653;BME280;11493;43.344;26.226;2022-08-06T03:04:18;98963.88;;;22.02;80.23
22653;BME280;11493;43.344;26.226;2022-08-06T03:07:03;98960.69;;;22.07;80.16
22653;BME280;11493;43.344;26.226;2022-08-06T03:09:53;98968.69;;;22.09;80.41
22653;BME280;11493;43.344;26.226;2022-08-06T03:12:23;98960.28;;;22.12;80.05
22653;BME280;11493;43.344;26.226;2022-08-06T03:15:06;98964.66;;;22.24;79.10
22653;BME280;11493;43.344;26.226;2022-08-06T03:17:44;98958.22;;;22.30;79.21
22653;BME280;11493;43.344;26.226;2022-08-06T03:20:15;98953.47;;;22.20;79.56
22653;BME280;11493;43.344;26.226;2022-08-06T03:22:53;98955.47;;;22.06;80.01
22653;BME280;11493;43.344;26.226;2022-08-06T03:25:23;98967.47;;;22.06;80.55
22653;BME280;11493;43.344;26.226;2022-08-06T03:27:58;98957.03;;;21.96;81.00
22653;BME280;11493;43.344;26.226;2022-08-06T03:30:29;98953.44;;;21.99;81.05
22653;BME280;11493;43.344;26.226;2022-08-06T03:33:01;98967.44;;;21.92;81.66
22653;BME280;11493;43.344;26.226;2022-08-06T03:35:50;98979.06;;;21.97;81.29
22653;BME280;11493;43.344;26.226;2022-08-06T03:38:22;98969.44;;;21.98;81.28
22653;BME280;11493;43.344;26.226;2022-08-06T03:40:57;98977.44;;;22.00;81.16
22653;BME280;11493;43.344;26.226;2022-08-06T03:43:29;98980.69;;;22.02;80.85
22653;BME280;11493;43.344;26.226;2022-08-06T03:46:24;98971.44;;;21.94;80.77
22653;BME280;11493;43.344;26.226;2022-08-06T03:48:54;98977.06;;;21.98;80.77
22653;BME280;11493;43.344;26.226;2022-08-06T03:51:27;98977.84;;;21.95;81.14
22653;BME280;11493;43.344;26.226;2022-08-06T03:54:18;98980.66;;;21.95;81.28
22653;BME280;11493;43.344;26.226;2022-08-06T03:57:03;98963.44;;;21.86;81.34
22653;BME280;11493;43.344;26.226;2022-08-06T03:59:39;98965.44;;;21.89;81.39
22653;BME280;11493;43.344;26.226;2022-08-06T04:02:28;98974.25;;;21.91;81.19
22653;BME280;11493;43.344;26.226;2022-08-06T04:05:18;98970.25;;;21.88;81.37
22653;BME280;11493;43.344;26.226;2022-08-06T04:07:51;98990.25;;;21.94;81.40
22653;BME280;11493;43.344;26.226;2022-08-06T04:10:24;98991.47;;;21.96;81.22
22653;BME280;11493;43.344;26.226;2022-08-06T04:13:07;98984.25;;;21.99;81.12
22653;BME280;11493;43.344;26.226;2022-08-06T04:15:56;98988.66;;;22.00;81.20
22653;BME280;11493;43.344;26.226;2022-08-06T04:18:27;98992.69;;;22.06;81.65
22653;BME280;11493;43.344;26.226;2022-08-06T04:21:01;98996.69;;;22.12;81.72
22653;BME280;11493;43.344;26.226;2022-08-06T04:23:48;98997.50;;;22.23;81.15
22653;BME280;11493;43.344;26.226;2022-08-06T04:26:18;98998.28;;;22.31;80.68
22653;BME280;11493;43.344;26.226;2022-08-06T04:28:50;98985.84;;;22.32;80.54
22653;BME280;11493;43.344;26.226;2022-08-06T04:31:26;98992.25;;;22.47;79.48
22653;BME280;11493;43.344;26.226;2022-08-06T04:34:20;98997.47;;;22.48;79.36
22653;BME280;11493;43.344;26.226;2022-08-06T04:36:54;98997.44;;;22.52;79.24
22653;BME280;11493;43.344;26.226;2022-08-06T04:39:21;99002.66;;;22.57;79.02
22653;BME280;11493;43.344;26.226;2022-08-06T04:42:03;99007.03;;;22.65;79.06
22653;BME280;11493;43.344;26.226;2022-08-06T04:44:33;99008.22;;;22.71;79.20
22653;BME280;11493;43.344;26.226;2022-08-06T04:47:01;99004.63;;;22.81;78.39
22653;BME280;11493;43.344;26.226;2022-08-06T04:49:29;99003.44;;;22.82;78.22
22653;BME280;11493;43.344;26.226;2022-08-06T04:52:24;99009.44;;;22.84;78.61
22653;BME280;11493;43.344;26.226;2022-08-06T04:55:04;98997.41;;;22.87;78.17
22653;BME280;11493;43.344;26.226;2022-08-06T04:57:52;99002.94;;;23.05;78.21
22653;BME280;11493;43.344;26.226;2022-08-06T05:00:34;99017.72;;;23.20;77.46
22653;BME280;11493;43.344;26.226;2022-08-06T05:03:23;98979.69;;;23.05;77.07
22653;BME280;11493;43.344;26.226;2022-08-06T05:06:18;99010.44;;;23.33;76.92
22653;BME280;11493;43.344;26.226;2022-08-06T05:08:51;99004.38;;;23.45;76.15
22653;BME280;11493;43.344;26.226;2022-08-06T05:11:24;98996.72;;;23.53;75.54
22653;BME280;11493;43.344;26.226;2022-08-06T05:13:57;98996.69;;;23.60;75.23
22653;BME280;11493;43.344;26.226;2022-08-06T05:16:27;98994.69;;;23.61;75.69
22653;BME280;11493;43.344;26.226;2022-08-06T05:19:00;99008.31;;;23.66;75.53
22653;BME280;11493;43.344;26.226;2022-08-06T05:21:49;98993.88;;;23.60;75.74
22653;BME280;11493;43.344;26.226;2022-08-06T05:24:39;98990.63;;;23.69;76.10
22653;BME280;11493;43.344;26.226;2022-08-06T05:27:29;99000.50;;;23.87;75.93
22653;BME280;11493;43.344;26.226;2022-08-06T05:30:17;99014.50;;;23.98;74.95
22653;BME280;11493;43.344;26.226;2022-08-06T05:32:48;99016.81;;;24.10;74.99
22653;BME280;11493;43.344;26.226;2022-08-06T05:35:23;99007.09;;;24.26;74.31
22653;BME280;11493;43.344;26.226;2022-08-06T05:38:10;99012.59;;;24.40;74.06
22653;BME280;11493;43.344;26.226;2022-08-06T05:40:39;99013.28;;;24.51;73.38
22653;BME280;11493;43.344;26.226;2022-08-06T05:43:22;99010.28;;;24.69;73.25
22653;BME280;11493;43.344;26.226;2022-08-06T05:46:23;99011.41;;;24.75;72.93
22653;BME280;11493;43.344;26.226;2022-08-06T05:54:47;99018.25;;;25.15;72.06
22653;BME280;11493;43.344;26.226;2022-08-06T05:57:21;99027.72;;;25.28;71.27
22653;BME280;11493;43.344;26.226;2022-08-06T06:00:10;99007.50;;;25.37;70.39
22653;BME280;11493;43.344;26.226;2022-08-06T06:03:02;99022.50;;;25.57;69.76
22653;BME280;11493;43.344;26.226;2022-08-06T06:05:31;99020.06;;;25.59;69.82
22653;BME280;11493;43.344;26.226;2022-08-06T06:08:19;99007.03;;;25.72;69.64
22653;BME280;11493;43.344;26.226;2022-08-06T06:11:04;99005.56;;;25.91;69.10
22653;BME280;11493;43.344;26.226;2022-08-06T06:13:34;98999.44;;;25.96;68.62
22653;BME280;11493;43.344;26.226;2022-08-06T06:16:29;99014.41;;;26.16;67.79
22653;BME280;11493;43.344;26.226;2022-08-06T06:25:14;99010.56;;;26.54;66.76
22653;BME280;11493;43.344;26.226;2022-08-06T06:28:02;99015.81;;;26.75;65.61
22653;BME280;11493;43.344;26.226;2022-08-06T06:33:17;99005.16;;;27.06;64.52
22653;BME280;11493;43.344;26.226;2022-08-06T06:39:30;99001.63;;;27.41;62.49
22653;BME280;11493;43.344;26.226;2022-08-06T06:42:10;99003.53;;;27.64;61.11
22653;BME280;11493;43.344;26.226;2022-08-06T06:47:58;98990.44;;;27.90;60.57
22653;BME280;11493;43.344;26.226;2022-08-06T06:50:40;98989.56;;;28.09;60.78
22653;BME280;11493;43.344;26.226;2022-08-06T06:53:09;98993.81;;;28.18;60.72
22653;BME280;11493;43.344;26.226;2022-08-06T06:55:43;98989.91;;;28.28;60.61
22653;BME280;11493;43.344;26.226;2022-08-06T06:58:48;98997.59;;;28.43;59.27
22653;BME280;11493;43.344;26.226;2022-08-06T07:01:18;98983.72;;;28.49;57.10
22653;BME280;11493;43.344;26.226;2022-08-06T07:03:57;98974.16;;;28.43;57.98
22653;BME280;11493;43.344;26.226;2022-08-06T07:06:28;98988.63;;;28.77;56.99
22653;BME280;11493;43.344;26.226;2022-08-06T07:09:17;98990.63;;;28.93;56.36
22653;BME280;11493;43.344;26.226;2022-08-06T07:12:06;98990.22;;;29.07;55.02
22653;BME280;11493;43.344;26.226;2022-08-06T07:14:48;98997.81;;;29.10;53.98
22653;BME280;11493;43.344;26.226;2022-08-06T07:17:28;98992.19;;;29.23;53.71
22653;BME280;11493;43.344;26.226;2022-08-06T07:20:21;98991.09;;;29.33;53.73
22653;BME280;11493;43.344;26.226;2022-08-06T07:22:53;98971.69;;;29.32;53.20
22653;BME280;11493;43.344;26.226;2022-08-06T07:25:44;98980.94;;;29.49;53.02
22653;BME280;11493;43.344;26.226;2022-08-06T07:28:22;98995.03;;;29.65;52.72
22653;BME280;11493;43.344;26.226;2022-08-06T07:30:56;98987.75;;;29.64;52.78
22653;BME280;11493;43.344;26.226;2022-08-06T07:33:37;98987.19;;;29.69;51.98
22653;BME280;11493;43.344;26.226;2022-08-06T07:36:27;98981.97;;;29.55;52.82
22653;BME280;11493;43.344;26.226;2022-08-06T07:39:00;98973.25;;;29.62;52.80
22653;BME280;11493;43.344;26.226;2022-08-06T07:41:30;98990.00;;;29.82;52.98
22653;BME280;11493;43.344;26.226;2022-08-06T07:44:21;98984.47;;;29.91;50.57
22653;BME280;11493;43.344;26.226;2022-08-06T07:46:58;98980.59;;;29.97;51.66
22653;BME280;11493;43.344;26.226;2022-08-06T07:49:47;98980.81;;;29.90;51.61
22653;BME280;11493;43.344;26.226;2022-08-06T07:52:29;98981.84;;;29.96;51.15
22653;BME280;11493;43.344;26.226;2022-08-06T07:54:59;98970.06;;;30.11;51.13
22653;BME280;11493;43.344;26.226;2022-08-06T07:57:30;98967.44;;;30.29;50.51
22653;BME280;11493;43.344;26.226;2022-08-06T08:00:22;98979.03;;;30.56;48.16
22653;BME280;11493;43.344;26.226;2022-08-06T08:02:55;98985.03;;;30.71;45.45
22653;BME280;11493;43.344;26.226;2022-08-06T08:06:02;98965.69;;;30.79;44.82
22653;BME280;11493;43.344;26.226;2022-08-06T08:08:51;98975.94;;;30.98;44.88
22653;BME280;11493;43.344;26.226;2022-08-06T08:11:19;98971.72;;;31.24;43.87
22653;BME280;11493;43.344;26.226;2022-08-06T08:14:10;98977.53;;;31.21;44.41
22653;BME280;11493;43.344;26.226;2022-08-06T08:16:40;98979.66;;;31.29;44.94
22653;BME280;11493;43.344;26.226;2022-08-06T08:19:27;98974.91;;;31.26;44.92
22653;BME280;11493;43.344;26.226;2022-08-06T08:22:08;98970.66;;;31.09;45.13
22653;BME280;11493;43.344;26.226;2022-08-06T08:24:41;98970.53;;;31.34;44.77
22653;BME280;11493;43.344;26.226;2022-08-06T08:27:21;98969.47;;;31.41;44.56
22653;BME280;11493;43.344;26.226;2022-08-06T08:29:49;98960.75;;;31.35;44.65
22653;BME280;11493;43.344;26.226;2022-08-06T08:32:23;98953.91;;;31.55;44.14
22653;BME280;11493;43.344;26.226;2022-08-06T08:34:52;98953.63;;;31.62;44.26
22653;BME280;11493;43.344;26.226;2022-08-06T08:37:22;98948.38;;;31.82;42.68
22653;BME280;11493;43.344;26.226;2022-08-06T08:39:50;98952.38;;;31.94;43.37
22653;BME280;11493;43.344;26.226;2022-08-06T08:45:32;98958.50;;;31.83;43.28
22653;BME280;11493;43.344;26.226;2022-08-06T08:48:02;98949.25;;;31.70;43.59
22653;BME280;11493;43.344;26.226;2022-08-06T08:50:33;98952.44;;;31.72;43.41
22653;BME280;11493;43.344;26.226;2022-08-06T08:53:09;98954.34;;;31.75;43.25
22653;BME280;11493;43.344;26.226;2022-08-06T08:55:41;98950.88;;;31.80;43.99
22653;BME280;11493;43.344;26.226;2022-08-06T08:58:29;98949.78;;;31.78;43.76
22653;BME280;11493;43.344;26.226;2022-08-06T09:01:11;98947.69;;;31.69;44.16
22653;BME280;11493;43.344;26.226;2022-08-06T09:04:03;98952.75;;;31.74;44.38
22653;BME280;11493;43.344;26.226;2022-08-06T09:06:32;98956.28;;;31.87;44.98
22653;BME280;11493;43.344;26.226;2022-08-06T09:09:06;98957.78;;;31.70;43.82
22653;BME280;11493;43.344;26.226;2022-08-06T09:11:42;98954.41;;;31.62;43.76
22653;BME280;11493;43.344;26.226;2022-08-06T09:14:30;98944.72;;;31.82;43.14
22653;BME280;11493;43.344;26.226;2022-08-06T09:17:05;98937.78;;;31.83;43.62
22653;BME280;11493;43.344;26.226;2022-08-06T09:19:39;98942.06;;;31.96;42.42
22653;BME280;11493;43.344;26.226;2022-08-06T09:22:08;98938.31;;;32.09;42.51
22653;BME280;11493;43.344;26.226;2022-08-06T09:24:38;98945.22;;;31.89;43.07
22653;BME280;11493;43.344;26.226;2022-08-06T09:27:17;98950.28;;;31.85;42.80
22653;BME280;11493;43.344;26.226;2022-08-06T09:30:05;98948.22;;;31.55;42.55
22653;BME280;11493;43.344;26.226;2022-08-06T09:32:54;98934.41;;;31.44;43.12
22653;BME280;11493;43.344;26.226;2022-08-06T09:35:25;98940.25;;;31.72;43.02
22653;BME280;11493;43.344;26.226;2022-08-06T09:38:12;98939.03;;;31.82;42.22
22653;BME280;11493;43.344;26.226;2022-08-06T09:43:41;98932.91;;;32.01;41.98
22653;BME280;11493;43.344;26.226;2022-08-06T09:46:46;98936.50;;;32.33;41.19
22653;BME280;11493;43.344;26.226;2022-08-06T09:49:16;98933.31;;;32.31;41.19
22653;BME280;11493;43.344;26.226;2022-08-06T09:52:15;98945.06;;;32.42;41.38
22653;BME280;11493;43.344;26.226;2022-08-06T09:54:45;98936.59;;;32.20;41.12
22653;BME280;11493;43.344;26.226;2022-08-06T09:57:23;98923.75;;;32.07;41.11
22653;BME280;11493;43.344;26.226;2022-08-06T10:00:04;98936.72;;;32.08;41.02
22653;BME280;11493;43.344;26.226;2022-08-06T10:02:41;98909.03;;;31.90;40.69
22653;BME280;11493;43.344;26.226;2022-08-06T10:05:18;98931.59;;;32.33;41.06
22653;BME280;11493;43.344;26.226;2022-08-06T10:08:08;98944.09;;;32.36;40.51
22653;BME280;11493;43.344;26.226;2022-08-06T10:10:48;98946.13;;;31.77;40.89
22653;BME280;11493;43.344;26.226;2022-08-06T10:13:23;98935.22;;;31.45;42.12
22653;BME280;11493;43.344;26.226;2022-08-06T10:15:57;98930.66;;;31.78;41.84
22653;BME280;11493;43.344;26.226;2022-08-06T10:21:32;98928.84;;;32.21;40.50
22653;BME280;11493;43.344;26.226;2022-08-06T10:24:15;98913.53;;;32.27;40.00
22653;BME280;11493;43.344;26.226;2022-08-06T10:27:08;98917.53;;;32.48;40.02
22653;BME280;11493;43.344;26.226;2022-08-06T10:29:54;98910.41;;;32.62;40.02
22653;BME280;11493;43.344;26.226;2022-08-06T10:32:41;98915.31;;;32.52;39.17
22653;BME280;11493;43.344;26.226;2022-08-06T10:35:11;98917.63;;;32.17;39.33
22653;BME280;11493;43.344;26.226;2022-08-06T10:37:51;98913.31;;;32.03;39.47
22653;BME280;11493;43.344;26.226;2022-08-06T10:40:22;98888.59;;;31.73;39.71
22653;BME280;11493;43.344;26.226;2022-08-06T10:43:02;98920.41;;;31.90;39.49
22653;BME280;11493;43.344;26.226;2022-08-06T10:45:35;98900.31;;;31.84;39.47
22653;BME280;11493;43.344;26.226;2022-08-06T10:48:16;98911.44;;;32.10;40.19
22653;BME280;11493;43.344;26.226;2022-08-06T10:51:06;98913.69;;;32.24;39.08
22653;BME280;11493;43.344;26.226;2022-08-06T10:53:35;98913.06;;;32.29;38.60
22653;BME280;11493;43.344;26.226;2022-08-06T10:56:24;98902.41;;;32.11;39.37
22653;BME280;11493;43.344;26.226;2022-08-06T10:58:59;98905.03;;;32.37;39.46
22653;BME280;11493;43.344;26.226;2022-08-06T11:01:40;98902.03;;;32.67;39.34
22653;BME280;11493;43.344;26.226;2022-08-06T11:07:38;98901.22;;;32.94;38.22
22653;BME280;11493;43.344;26.226;2022-08-06T11:10:51;98892.81;;;33.00;36.65
22653;BME280;11493;43.344;26.226;2022-08-06T11:16:24;98898.38;;;32.58;38.75
22653;BME280;11493;43.344;26.226;2022-08-06T11:19:08;98882.41;;;32.51;38.96
22653;BME280;11493;43.344;26.226;2022-08-06T11:24:26;98879.22;;;32.77;38.44
22653;BME280;11493;43.344;26.226;2022-08-06T11:26:53;98886.47;;;32.96;37.49
22653;BME280;11493;43.344;26.226;2022-08-06T11:30:11;98889.66;;;32.71;37.46
22653;BME280;11493;43.344;26.226;2022-08-06T11:41:30;98892.31;;;32.19;37.94
22653;BME280;11493;43.344;26.226;2022-08-06T11:44:33;98884.28;;;32.27;37.68
22653;BME280;11493;43.344;26.226;2022-08-06T11:47:13;98880.19;;;32.55;37.65
22653;BME280;11493;43.344;26.226;2022-08-06T11:49:43;98882.69;;;32.72;37.55
22653;BME280;11493;43.344;26.226;2022-08-06T11:55:15;98871.47;;;32.86;36.85
22653;BME280;11493;43.344;26.226;2022-08-06T12:01:01;98873.53;;;32.67;37.28
22653;BME280;11493;43.344;26.226;2022-08-06T12:03:49;98863.41;;;32.57;36.65
22653;BME280;11493;43.344;26.226;2022-08-06T12:06:23;98861.03;;;32.65;36.70
22653;BME280;11493;43.344;26.226;2022-08-06T12:09:09;98858.94;;;32.93;36.29
22653;BME280;11493;43.344;26.226;2022-08-06T12:12:38;98862.44;;;32.88;36.78
22653;BME280;11493;43.344;26.226;2022-08-06T12:18:07;98858.78;;;32.69;37.37
22653;BME280;11493;43.344;26.226;2022-08-06T12:20:55;98842.19;;;32.77;37.34
22653;BME280;11493;43.344;26.226;2022-08-06T12:23:25;98854.31;;;33.05;36.75
22653;BME280;11493;43.344;26.226;2022-08-06T12:26:13;98846.31;;;33.36;36.40
22653;BME280;11493;43.344;26.226;2022-08-06T12:28:40;98838.72;;;33.33;34.77
22653;BME280;11493;43.344;26.226;2022-08-06T12:31:10;98843.63;;;33.42;34.81
22653;BME280;11493;43.344;26.226;2022-08-06T12:33:58;98843.97;;;33.35;34.66
22653;BME280;11493;43.344;26.226;2022-08-06T12:36:28;98844.63;;;33.11;35.92
22653;BME280;11493;43.344;26.226;2022-08-06T12:39:04;98847.53;;;33.02;35.84
22653;BME280;11493;43.344;26.226;2022-08-06T12:41:53;98841.22;;;32.89;36.39
22653;BME280;11493;43.344;26.226;2022-08-06T12:44:31;98828.88;;;32.74;36.92
22653;BME280;11493;43.344;26.226;2022-08-06T12:47:20;98837.75;;;32.76;36.97
22653;BME280;11493;43.344;26.226;2022-08-06T12:50:19;98833.81;;;32.55;37.31
22653;BME280;11493;43.344;26.226;2022-08-06T12:53:07;98835.72;;;32.67;36.76
22653;BME280;11493;43.344;26.226;2022-08-06T12:55:48;98831.44;;;32.62;36.90
22653;BME280;11493;43.344;26.226;2022-08-06T12:58:32;98825.09;;;32.67;37.15
22653;BME280;11493;43.344;26.226;2022-08-06T13:01:15;98829.31;;;32.99;36.30
22653;BME280;11493;43.344;26.226;2022-08-06T13:04:06;98818.16;;;33.29;35.50
22653;BME280;11493;43.344;26.226;2022-08-06T13:06:42;98825.16;;;33.52;36.29
22653;BME280;11493;43.344;26.226;2022-08-06T13:09:16;98827.09;;;33.46;36.06
22653;BME280;11493;43.344;26.226;2022-08-06T13:11:44;98827.16;;;33.27;36.21
22653;BME280;11493;43.344;26.226;2022-08-06T13:14:18;98820.38;;;33.25;36.86
22653;BME280;11493;43.344;26.226;2022-08-06T13:16:48;98816.56;;;33.28;36.00
22653;BME280;11493;43.344;26.226;2022-08-06T13:19:23;98831.50;;;33.14;36.13
22653;BME280;11493;43.344;26.226;2022-08-06T13:22:06;98824.34;;;33.18;36.23
22653;BME280;11493;43.344;26.226;2022-08-06T13:24:37;98839.03;;;33.35;36.03
22653;BME280;11493;43.344;26.226;2022-08-06T13:27:32;98833.81;;;33.34;36.20
22653;BME280;11493;43.344;26.226;2022-08-06T13:30:04;98825.78;;;33.14;36.71
22653;BME280;11493;43.344;26.226;2022-08-06T13:32:52;98826.75;;;33.11;37.54
22653;BME280;11493;43.344;26.226;2022-08-06T13:35:26;98830.56;;;33.08;37.83
22653;BME280;11493;43.344;26.226;2022-08-06T13:37:56;98828.66;;;33.05;37.76
22653;BME280;11493;43.344;26.226;2022-08-06T13:40:47;98840.75;;;32.81;38.16
22653;BME280;11493;43.344;26.226;2022-08-06T13:43:40;98839.63;;;32.70;38.45
22653;BME280;11493;43.344;26.226;2022-08-06T13:46:22;98799.31;;;32.62;38.72
22653;BME280;11493;43.344;26.226;2022-08-06T13:48:56;98805.44;;;32.70;38.70
22653;BME280;11493;43.344;26.226;2022-08-06T13:51:29;98823.03;;;32.77;39.22
22653;BME280;11493;43.344;26.226;2022-08-06T13:54:04;98811.47;;;32.72;38.78
22653;BME280;11493;43.344;26.226;2022-08-06T13:56:46;98801.66;;;32.73;38.59
22653;BME280;11493;43.344;26.226;2022-08-06T13:59:22;98808.44;;;32.75;38.78
22653;BME280;11493;43.344;26.226;2022-08-06T14:02:09;98809.38;;;32.90;38.69
22653;BME280;11493;43.344;26.226;2022-08-06T14:04:38;98805.44;;;32.70;38.02
22653;BME280;11493;43.344;26.226;2022-08-06T14:07:07;98806.88;;;32.74;37.26
22653;BME280;11493;43.344;26.226;2022-08-06T14:09:34;98814.00;;;32.88;37.39
22653;BME280;11493;43.344;26.226;2022-08-06T14:12:21;98801.59;;;33.00;37.29
22653;BME280;11493;43.344;26.226;2022-08-06T14:14:56;98806.97;;;33.07;37.30
22653;BME280;11493;43.344;26.226;2022-08-06T14:17:25;98807.56;;;33.20;36.17
22653;BME280;11493;43.344;26.226;2022-08-06T14:20:02;98811.50;;;33.32;36.03
22653;BME280;11493;43.344;26.226;2022-08-06T14:22:45;98806.34;;;33.45;35.15
22653;BME280;11493;43.344;26.226;2022-08-06T14:25:15;98789.00;;;33.58;34.81
22653;BME280;11493;43.344;26.226;2022-08-06T14:27:43;98801.25;;;33.73;34.71
22653;BME280;11493;43.344;26.226;2022-08-06T14:30:12;98813.25;;;33.86;35.34
22653;BME280;11493;43.344;26.226;2022-08-06T14:33:00;98794.22;;;33.59;35.96
22653;BME280;11493;43.344;26.226;2022-08-06T14:35:45;98804.03;;;33.58;36.29
22653;BME280;11493;43.344;26.226;2022-08-06T14:38:21;98802.94;;;33.32;36.42
22653;BME280;11493;43.344;26.226;2022-08-06T14:41:01;98806.63;;;33.14;36.83
22653;BME280;11493;43.344;26.226;2022-08-06T14:44:08;98809.38;;;32.90;37.72
22653;BME280;11493;43.344;26.226;2022-08-06T14:46:56;98795.34;;;32.78;37.00
22653;BME280;11493;43.344;26.226;2022-08-06T14:49:25;98795.53;;;32.65;36.93
22653;BME280;11493;43.344;26.226;2022-08-06T14:52:11;98792.22;;;32.57;37.59
22653;BME280;11493;43.344;26.226;2022-08-06T14:54:48;98788.94;;;33.01;37.62
22653;BME280;11493;43.344;26.226;2022-08-06T14:57:30;98790.09;;;33.37;36.43
22653;BME280;11493;43.344;26.226;2022-08-06T15:00:17;98804.34;;;33.60;36.53
22653;BME280;11493;43.344;26.226;2022-08-06T15:02:59;98799.78;;;33.54;35.98